sensor_id;sensor_type;location;lat;lon;timestamp;pressure;altitude;pressure_sealevel;temperature;humidity
35435;BME280;21556;55.782;37.528;2023-03-18T00:02:07;101415.31;;;3.40;47.12
35435;BME280;21556;55.782;37.528;2023-03-18T00:04:33;101416.78;;;3.36;46.31
35435;BME280;21556;55.782;37.528;2023-03-18T00:06:59;101411.47;;;3.35;47.94
35435;BME280;21556;55.782;37.528;2023-03-18T00:09:26;101416.19;;;3.41;47.96
35435;BME280;21556;55.782;37.528;2023-03-18T00:11:52;101413.06;;;3.09;48.70
35435;BME280;21556;55.782;37.528;2023-03-18T00:14:19;101416.56;;;3.22;49.13
35435;BME280;21556;55.782;37.528;2023-03-18T00:16:45;101414.41;;;2.93;52.83
35435;BME280;21556;55.782;37.528;2023-03-18T00:19:11;101425.56;;;3.50;48.37
35435;BME280;21556;55.782;37.528;2023-03-18T00:21:38;101419.75;;;3.66;46.10
35435;BME280;21556;55.782;37.528;2023-03-18T00:24:05;101426.16;;;3.34;48.61
35435;BME280;21556;55.782;37.528;2023-03-18T00:26:31;101419.16;;;2.98;49.45
35435;BME280;21556;55.782;37.528;2023-03-18T00:28:57;101424.22;;;3.08;51.46
35435;BME280;21556;55.782;37.528;2023-03-18T00:31:24;101429.63;;;3.00;50.93
35435;BME280;21556;55.782;37.528;2023-03-18T00:33:51;101416.78;;;3.25;50.16
35435;BME280;21556;55.782;37.528;2023-03-18T00:36:17;101427.69;;;3.44;50.18
35435;BME280;21556;55.782;37.528;2023-03-18T00:38:51;101432.47;;;3.14;51.98
35435;BME280;21556;55.782;37.528;2023-03-18T00:41:26;101418.53;;;3.61;48.31
35435;BME280;21556;55.782;37.528;2023-03-18T00:43:53;101428.41;;;3.18;49.53
35435;BME280;21556;55.782;37.528;2023-03-18T00:46:30;101429.75;;;3.01;49.91
35435;BME280;21556;55.782;37.528;2023-03-18T00:48:58;101428.97;;;3.26;50.17
35435;BME280;21556;55.782;37.528;2023-03-18T00:51:26;101433.38;;;2.92;51.25
35435;BME280;21556;55.782;37.528;2023-03-18T00:53:55;101432.31;;;2.78;52.01
35435;BME280;21556;55.782;37.528;2023-03-18T00:56:26;101422.78;;;3.24;52.25
35435;BME280;21556;55.782;37.528;2023-03-18T00:58:53;101436.88;;;3.27;51.45
35435;BME280;21556;55.782;37.528;2023-03-18T01:01:20;101431.31;;;3.11;53.56
35435;BME280;21556;55.782;37.528;2023-03-18T01:03:47;101440.91;;;3.12;51.28
35435;BME280;21556;55.782;37.528;2023-03-18T01:06:22;101429.41;;;3.44;49.73
35435;BME280;21556;55.782;37.528;2023-03-18T01:08:49;101434.81;;;2.88;51.96
35435;BME280;21556;55.782;37.528;2023-03-18T01:11:16;101433.91;;;2.87;52.26
35435;BME280;21556;55.782;37.528;2023-03-18T01:13:43;101442.38;;;2.85;54.18
35435;BME280;21556;55.782;37.528;2023-03-18T01:16:10;101450.28;;;2.98;53.19
35435;BME280;21556;55.782;37.528;2023-03-18T01:18:37;101443.81;;;2.70;52.99
35435;BME280;21556;55.782;37.528;2023-03-18T01:21:03;101441.84;;;3.24;50.90
35435;BME280;21556;55.782;37.528;2023-03-18T01:23:34;101440.44;;;2.82;52.90
35435;BME280;21556;55.782;37.528;2023-03-18T01:26:01;101451.75;;;3.06;53.64
35435;BME280;21556;55.782;37.528;2023-03-18T01:28:28;101448.34;;;2.84;51.77
35435;BME280;21556;55.782;37.528;2023-03-18T01:30:55;101458.31;;;2.68;55.92
35435;BME280;21556;55.782;37.528;2023-03-18T01:33:23;101463.28;;;2.31;59.46
35435;BME280;21556;55.782;37.528;2023-03-18T01:35:55;101465.56;;;2.38;59.49
35435;BME280;21556;55.782;37.528;2023-03-18T01:38:27;101468.06;;;2.82;54.24
35435;BME280;21556;55.782;37.528;2023-03-18T01:41:02;101463.97;;;2.74;54.86
35435;BME280;21556;55.782;37.528;2023-03-18T01:43:31;101470.44;;;2.45;55.52
35435;BME280;21556;55.782;37.528;2023-03-18T01:46:00;101471.28;;;2.34;55.31
35435;BME280;21556;55.782;37.528;2023-03-18T01:48:29;101469.47;;;2.55;54.72
35435;BME280;21556;55.782;37.528;2023-03-18T01:51:05;101477.88;;;1.97;59.26
35435;BME280;21556;55.782;37.528;2023-03-18T01:53:38;101482.56;;;2.12;57.75
35435;BME280;21556;55.782;37.528;2023-03-18T01:56:06;101479.97;;;2.68;55.54
35435;BME280;21556;55.782;37.528;2023-03-18T01:58:49;101479.13;;;3.03;52.23
35435;BME280;21556;55.782;37.528;2023-03-18T02:01:23;101485.03;;;2.33;55.66
35435;BME280;21556;55.782;37.528;2023-03-18T02:03:54;101483.38;;;2.79;52.53
35435;BME280;21556;55.782;37.528;2023-03-18T02:06:20;101489.78;;;2.38;56.40
35435;BME280;21556;55.782;37.528;2023-03-18T02:08:54;101499.53;;;2.31;56.21
35435;BME280;21556;55.782;37.528;2023-03-18T02:11:20;101497.16;;;2.22;56.14
35435;BME280;21556;55.782;37.528;2023-03-18T02:13:53;101499.16;;;2.48;53.62
35435;BME280;21556;55.782;37.528;2023-03-18T02:16:44;101498.63;;;2.52;52.23
35435;BME280;21556;55.782;37.528;2023-03-18T02:22:23;101507.31;;;2.31;56.07
35435;BME280;21556;55.782;37.528;2023-03-18T02:28:08;101515.34;;;1.80;63.77
35435;BME280;21556;55.782;37.528;2023-03-18T02:30:39;101523.41;;;2.05;62.13
35435;BME280;21556;55.782;37.528;2023-03-18T02:33:09;101517.19;;;2.03;63.47
35435;BME280;21556;55.782;37.528;2023-03-18T02:35:36;101525.38;;;1.97;62.22
35435;BME280;21556;55.782;37.528;2023-03-18T02:38:02;101523.56;;;1.96;61.40
35435;BME280;21556;55.782;37.528;2023-03-18T02:40:32;101528.97;;;1.99;62.00
35435;BME280;21556;55.782;37.528;2023-03-18T02:43:22;101529.41;;;1.93;63.32
35435;BME280;21556;55.782;37.528;2023-03-18T02:48:32;101531.13;;;2.37;59.77
35435;BME280;21556;55.782;37.528;2023-03-18T02:50:59;101539.28;;;1.77;65.47
35435;BME280;21556;55.782;37.528;2023-03-18T02:53:25;101537.28;;;1.95;63.81
35435;BME280;21556;55.782;37.528;2023-03-18T02:55:51;101541.06;;;1.88;65.40
35435;BME280;21556;55.782;37.528;2023-03-18T02:58:17;101540.97;;;1.77;62.17
35435;BME280;21556;55.782;37.528;2023-03-18T03:00:45;101541.44;;;1.93;64.94
35435;BME280;21556;55.782;37.528;2023-03-18T03:03:11;101545.59;;;1.91;64.17
35435;BME280;21556;55.782;37.528;2023-03-18T03:05:36;101551.97;;;1.74;64.43
35435;BME280;21556;55.782;37.528;2023-03-18T03:08:03;101548.78;;;1.99;63.64
35435;BME280;21556;55.782;37.528;2023-03-18T03:10:33;101554.28;;;1.39;72.11
35435;BME280;21556;55.782;37.528;2023-03-18T03:12:59;101551.78;;;1.61;67.27
35435;BME280;21556;55.782;37.528;2023-03-18T03:15:26;101547.91;;;1.88;67.59
35435;BME280;21556;55.782;37.528;2023-03-18T03:17:56;101559.06;;;1.87;67.03
35435;BME280;21556;55.782;37.528;2023-03-18T03:20:22;101552.13;;;1.76;67.65
35435;BME280;21556;55.782;37.528;2023-03-18T03:22:50;101552.13;;;2.08;62.25
35435;BME280;21556;55.782;37.528;2023-03-18T03:25:16;101551.25;;;1.97;63.96
35435;BME280;21556;55.782;37.528;2023-03-18T03:27:42;101552.66;;;2.04;65.78
35435;BME280;21556;55.782;37.528;2023-03-18T03:30:10;101567.50;;;1.11;72.01
35435;BME280;21556;55.782;37.528;2023-03-18T03:32:36;101554.31;;;1.29;76.67
35435;BME280;21556;55.782;37.528;2023-03-18T03:35:03;101550.66;;;1.47;74.67
35435;BME280;21556;55.782;37.528;2023-03-18T03:37:30;101552.22;;;1.35;71.92
35435;BME280;21556;55.782;37.528;2023-03-18T03:39:55;101557.84;;;1.61;70.96
35435;BME280;21556;55.782;37.528;2023-03-18T03:42:22;101556.78;;;1.69;70.61
35435;BME280;21556;55.782;37.528;2023-03-18T03:44:48;101556.19;;;1.41;69.07
35435;BME280;21556;55.782;37.528;2023-03-18T03:47:16;101555.81;;;1.47;71.36
35435;BME280;21556;55.782;37.528;2023-03-18T03:49:42;101556.34;;;1.43;70.48
35435;BME280;21556;55.782;37.528;2023-03-18T03:52:09;101559.03;;;1.44;72.36
35435;BME280;21556;55.782;37.528;2023-03-18T03:54:37;101560.59;;;1.53;73.15
35435;BME280;21556;55.782;37.528;2023-03-18T03:57:03;101563.47;;;1.46;71.69
35435;BME280;21556;55.782;37.528;2023-03-18T03:59:28;101560.06;;;1.57;72.56
35435;BME280;21556;55.782;37.528;2023-03-18T04:02:18;101573.28;;;1.50;71.41
35435;BME280;21556;55.782;37.528;2023-03-18T04:04:44;101564.84;;;1.95;66.52
35435;BME280;21556;55.782;37.528;2023-03-18T04:07:20;101567.88;;;1.89;67.13
35435;BME280;21556;55.782;37.528;2023-03-18T04:09:46;101571.22;;;1.88;70.65
35435;BME280;21556;55.782;37.528;2023-03-18T04:12:14;101568.16;;;1.82;69.18
35435;BME280;21556;55.782;37.528;2023-03-18T04:14:46;101573.19;;;2.12;63.36
35435;BME280;21556;55.782;37.528;2023-03-18T04:17:13;101572.56;;;1.73;68.54
35435;BME280;21556;55.782;37.528;2023-03-18T04:19:39;101574.22;;;1.82;67.76
35435;BME280;21556;55.782;37.528;2023-03-18T04:22:05;101578.09;;;1.35;75.70
35435;BME280;21556;55.782;37.528;2023-03-18T04:24:31;101579.53;;;1.31;76.95
35435;BME280;21556;55.782;37.528;2023-03-18T04:26:57;101578.28;;;1.58;75.13
35435;BME280;21556;55.782;37.528;2023-03-18T04:29:23;101583.19;;;1.65;77.24
35435;BME280;21556;55.782;37.528;2023-03-18T04:31:50;101580.50;;;1.54;76.98
35435;BME280;21556;55.782;37.528;2023-03-18T04:34:17;101579.34;;;1.50;76.86
35435;BME280;21556;55.782;37.528;2023-03-18T04:36:44;101590.78;;;1.22;80.77
35435;BME280;21556;55.782;37.528;2023-03-18T04:39:09;101586.56;;;1.75;77.51
35435;BME280;21556;55.782;37.528;2023-03-18T04:41:35;101590.97;;;1.65;75.90
35435;BME280;21556;55.782;37.528;2023-03-18T04:44:05;101587.25;;;1.94;74.07
35435;BME280;21556;55.782;37.528;2023-03-18T04:46:39;101594.13;;;1.93;74.52
35435;BME280;21556;55.782;37.528;2023-03-18T04:49:06;101599.09;;;1.70;78.12
35435;BME280;21556;55.782;37.528;2023-03-18T04:51:33;101592.97;;;2.22;72.83
35435;BME280;21556;55.782;37.528;2023-03-18T04:54:00;101595.03;;;2.48;69.56
35435;BME280;21556;55.782;37.528;2023-03-18T04:56:30;101595.41;;;2.21;73.25
35435;BME280;21556;55.782;37.528;2023-03-18T04:58:57;101590.84;;;2.28;69.40
35435;BME280;21556;55.782;37.528;2023-03-18T05:01:29;101597.19;;;1.67;77.33
35435;BME280;21556;55.782;37.528;2023-03-18T05:03:56;101597.97;;;2.31;72.21
35435;BME280;21556;55.782;37.528;2023-03-18T05:06:29;101600.75;;;2.22;71.88
35435;BME280;21556;55.782;37.528;2023-03-18T05:09:04;101603.31;;;2.54;66.58
35435;BME280;21556;55.782;37.528;2023-03-18T05:11:32;101599.91;;;2.55;64.52
35435;BME280;21556;55.782;37.528;2023-03-18T05:14:05;101609.03;;;1.86;70.56
35435;BME280;21556;55.782;37.528;2023-03-18T05:16:39;101603.59;;;2.47;65.24
35435;BME280;21556;55.782;37.528;2023-03-18T05:19:05;101615.72;;;2.58;60.79
35435;BME280;21556;55.782;37.528;2023-03-18T05:21:32;101609.19;;;2.41;60.70
35435;BME280;21556;55.782;37.528;2023-03-18T05:23:59;101610.53;;;2.58;60.81
35435;BME280;21556;55.782;37.528;2023-03-18T05:26:29;101618.66;;;2.41;62.63
35435;BME280;21556;55.782;37.528;2023-03-18T05:28:55;101613.97;;;2.47;61.74
35435;BME280;21556;55.782;37.528;2023-03-18T05:31:33;101614.44;;;2.21;65.19
35435;BME280;21556;55.782;37.528;2023-03-18T05:34:00;101618.25;;;2.14;65.96
35435;BME280;21556;55.782;37.528;2023-03-18T05:36:31;101618.09;;;2.45;63.63
35435;BME280;21556;55.782;37.528;2023-03-18T05:39:02;101604.75;;;3.06;59.87
35435;BME280;21556;55.782;37.528;2023-03-18T05:41:28;101602.81;;;3.61;54.15
35435;BME280;21556;55.782;37.528;2023-03-18T05:43:55;101603.16;;;3.54;52.83
35435;BME280;21556;55.782;37.528;2023-03-18T05:46:22;101603.97;;;4.00;50.68
35435;BME280;21556;55.782;37.528;2023-03-18T05:49:01;101594.63;;;4.39;48.86
35435;BME280;21556;55.782;37.528;2023-03-18T05:51:32;101601.72;;;3.93;50.70
35435;BME280;21556;55.782;37.528;2023-03-18T05:53:59;101601.41;;;4.48;47.86
35435;BME280;21556;55.782;37.528;2023-03-18T05:56:31;101597.03;;;4.61;46.32
35435;BME280;21556;55.782;37.528;2023-03-18T05:59:00;101600.41;;;4.96;45.76
35435;BME280;21556;55.782;37.528;2023-03-18T06:01:51;101597.81;;;6.13;41.67
35435;BME280;21556;55.782;37.528;2023-03-18T06:04:19;101590.75;;;6.38;38.69
35435;BME280;21556;55.782;37.528;2023-03-18T06:06:47;101573.78;;;8.36;35.96
35435;BME280;21556;55.782;37.528;2023-03-18T06:09:14;101575.06;;;8.42;35.02
35435;BME280;21556;55.782;37.528;2023-03-18T06:11:46;101579.22;;;8.55;34.40
35435;BME280;21556;55.782;37.528;2023-03-18T06:14:13;101581.59;;;9.00;33.92
35435;BME280;21556;55.782;37.528;2023-03-18T06:16:40;101564.38;;;10.09;32.00
35435;BME280;21556;55.782;37.528;2023-03-18T06:19:09;101573.13;;;9.22;31.59
35435;BME280;21556;55.782;37.528;2023-03-18T06:21:38;101562.03;;;10.31;30.36
35435;BME280;21556;55.782;37.528;2023-03-18T06:24:05;101563.28;;;10.59;30.56
35435;BME280;21556;55.782;37.528;2023-03-18T06:26:33;101567.63;;;9.68;30.17
35435;BME280;21556;55.782;37.528;2023-03-18T06:29:01;101568.44;;;9.67;30.60
35435;BME280;21556;55.782;37.528;2023-03-18T06:31:28;101563.09;;;10.93;29.78
35435;BME280;21556;55.782;37.528;2023-03-18T06:33:54;101557.81;;;11.53;28.60
35435;BME280;21556;55.782;37.528;2023-03-18T06:36:23;101558.25;;;10.83;28.41
35435;BME280;21556;55.782;37.528;2023-03-18T06:38:50;101548.31;;;12.90;27.19
35435;BME280;21556;55.782;37.528;2023-03-18T06:41:18;101545.31;;;12.34;27.17
35435;BME280;21556;55.782;37.528;2023-03-18T06:43:57;101539.47;;;13.37;26.31
35435;BME280;21556;55.782;37.528;2023-03-18T06:46:23;101543.94;;;13.65;25.85
35435;BME280;21556;55.782;37.528;2023-03-18T06:48:50;101546.53;;;13.14;25.33
35435;BME280;21556;55.782;37.528;2023-03-18T06:51:21;101548.28;;;12.66;25.59
35435;BME280;21556;55.782;37.528;2023-03-18T06:53:49;101551.88;;;12.92;25.74
35435;BME280;21556;55.782;37.528;2023-03-18T06:56:16;101543.84;;;13.62;25.17
35435;BME280;21556;55.782;37.528;2023-03-18T06:59:11;101566.25;;;11.46;26.28
35435;BME280;21556;55.782;37.528;2023-03-18T07:01:38;101561.31;;;11.53;26.92
35435;BME280;21556;55.782;37.528;2023-03-18T07:04:05;101570.00;;;10.91;27.62
35435;BME280;21556;55.782;37.528;2023-03-18T07:06:33;101577.53;;;10.64;27.01
35435;BME280;21556;55.782;37.528;2023-03-18T07:09:01;101567.66;;;10.97;26.30
35435;BME280;21556;55.782;37.528;2023-03-18T07:11:28;101556.47;;;12.49;25.15
35435;BME280;21556;55.782;37.528;2023-03-18T07:13:55;101558.84;;;12.21;25.14
35435;BME280;21556;55.782;37.528;2023-03-18T07:16:29;101547.47;;;11.99;23.90
35435;BME280;21556;55.782;37.528;2023-03-18T07:18:56;101547.19;;;12.83;23.74
35435;BME280;21556;55.782;37.528;2023-03-18T07:21:25;101546.38;;;13.10;23.21
35435;BME280;21556;55.782;37.528;2023-03-18T07:23:52;101551.44;;;12.11;23.62
35435;BME280;21556;55.782;37.528;2023-03-18T07:26:20;101546.53;;;11.76;24.50
35435;BME280;21556;55.782;37.528;2023-03-18T07:28:46;101546.38;;;12.62;23.44
35435;BME280;21556;55.782;37.528;2023-03-18T07:31:12;101546.16;;;12.33;23.40
35435;BME280;21556;55.782;37.528;2023-03-18T07:33:39;101537.13;;;13.46;22.98
35435;BME280;21556;55.782;37.528;2023-03-18T07:36:07;101531.19;;;13.52;22.80
35435;BME280;21556;55.782;37.528;2023-03-18T07:38:35;101530.13;;;13.47;22.17
35435;BME280;21556;55.782;37.528;2023-03-18T07:41:01;101540.16;;;11.71;23.32
35435;BME280;21556;55.782;37.528;2023-03-18T07:43:28;101551.63;;;11.31;23.60
35435;BME280;21556;55.782;37.528;2023-03-18T07:46:11;101536.56;;;11.90;24.12
35435;BME280;21556;55.782;37.528;2023-03-18T07:48:37;101537.22;;;12.06;24.18
35435;BME280;21556;55.782;37.528;2023-03-18T07:51:03;101535.97;;;12.89;21.96
35435;BME280;21556;55.782;37.528;2023-03-18T07:53:29;101537.13;;;13.46;22.11
35435;BME280;21556;55.782;37.528;2023-03-18T07:55:57;101523.75;;;14.21;21.33
35435;BME280;21556;55.782;37.528;2023-03-18T07:58:23;101534.09;;;12.38;22.04
35435;BME280;21556;55.782;37.528;2023-03-18T08:00:51;101530.84;;;11.79;22.72
35435;BME280;21556;55.782;37.528;2023-03-18T08:03:22;101542.34;;;11.40;22.62
35435;BME280;21556;55.782;37.528;2023-03-18T08:05:50;101544.44;;;10.87;22.55
35435;BME280;21556;55.782;37.528;2023-03-18T08:08:19;101542.91;;;11.74;22.05
35435;BME280;21556;55.782;37.528;2023-03-18T08:10:47;101544.84;;;11.57;22.20
35435;BME280;21556;55.782;37.528;2023-03-18T08:13:14;101532.91;;;11.87;20.91
35435;BME280;21556;55.782;37.528;2023-03-18T08:15:41;101530.47;;;11.28;21.49
35435;BME280;21556;55.782;37.528;2023-03-18T08:18:07;101521.94;;;12.19;21.06
35435;BME280;21556;55.782;37.528;2023-03-18T08:20:33;101528.25;;;11.38;20.68
35435;BME280;21556;55.782;37.528;2023-03-18T08:22:59;101528.13;;;11.55;20.76
35435;BME280;21556;55.782;37.528;2023-03-18T08:25:27;101524.81;;;11.82;19.91
35435;BME280;21556;55.782;37.528;2023-03-18T08:27:53;101516.50;;;11.71;19.91
35435;BME280;21556;55.782;37.528;2023-03-18T08:30:19;101521.81;;;12.16;19.95
35435;BME280;21556;55.782;37.528;2023-03-18T08:32:49;101517.41;;;11.51;19.91
35435;BME280;21556;55.782;37.528;2023-03-18T08:35:16;101523.63;;;11.11;19.97
35435;BME280;21556;55.782;37.528;2023-03-18T08:37:42;101511.38;;;11.74;19.76
35435;BME280;21556;55.782;37.528;2023-03-18T08:40:12;101507.13;;;11.99;18.70
35435;BME280;21556;55.782;37.528;2023-03-18T08:42:44;101511.16;;;11.91;19.11
35435;BME280;21556;55.782;37.528;2023-03-18T08:45:14;101510.56;;;12.43;19.49
35435;BME280;21556;55.782;37.528;2023-03-18T08:47:40;101516.56;;;12.16;20.15
35435;BME280;21556;55.782;37.528;2023-03-18T08:50:06;101513.22;;;11.98;19.13
35435;BME280;21556;55.782;37.528;2023-03-18T08:52:34;101515.78;;;12.19;19.32
35435;BME280;21556;55.782;37.528;2023-03-18T08:55:02;101504.50;;;12.45;18.39
35435;BME280;21556;55.782;37.528;2023-03-18T08:57:29;101505.09;;;11.71;17.90
35435;BME280;21556;55.782;37.528;2023-03-18T09:00:06;101501.34;;;11.22;19.02
35435;BME280;21556;55.782;37.528;2023-03-18T09:02:36;101495.72;;;12.45;18.61
35435;BME280;21556;55.782;37.528;2023-03-18T09:05:02;101495.78;;;11.79;18.04
35435;BME280;21556;55.782;37.528;2023-03-18T09:07:28;101490.34;;;12.66;18.56
35435;BME280;21556;55.782;37.528;2023-03-18T09:09:55;101492.06;;;11.74;18.13
35435;BME280;21556;55.782;37.528;2023-03-18T09:12:26;101487.13;;;11.81;17.66
35435;BME280;21556;55.782;37.528;2023-03-18T09:14:53;101493.06;;;12.67;19.05
35435;BME280;21556;55.782;37.528;2023-03-18T09:17:21;101486.13;;;12.95;17.78
35435;BME280;21556;55.782;37.528;2023-03-18T09:19:48;101484.53;;;12.04;18.89
35435;BME280;21556;55.782;37.528;2023-03-18T09:22:16;101485.03;;;11.31;18.41
35435;BME280;21556;55.782;37.528;2023-03-18T09:24:42;101487.28;;;12.07;19.22
35435;BME280;21556;55.782;37.528;2023-03-18T09:27:08;101483.63;;;12.74;18.09
35435;BME280;21556;55.782;37.528;2023-03-18T09:29:36;101477.06;;;12.63;18.41
35435;BME280;21556;55.782;37.528;2023-03-18T09:32:02;101474.03;;;12.52;17.93
35435;BME280;21556;55.782;37.528;2023-03-18T09:34:29;101467.69;;;12.23;18.26
35435;BME280;21556;55.782;37.528;2023-03-18T09:36:55;101473.00;;;12.71;17.79
35435;BME280;21556;55.782;37.528;2023-03-18T09:39:22;101466.19;;;13.01;17.97
35435;BME280;21556;55.782;37.528;2023-03-18T09:45:27;101455.22;;;13.15;17.51
35435;BME280;21556;55.782;37.528;2023-03-18T09:51:14;101458.13;;;12.49;18.80
35435;BME280;21556;55.782;37.528;2023-03-18T09:56:38;101462.50;;;12.96;19.74
35435;BME280;21556;55.782;37.528;2023-03-18T10:01:51;101442.78;;;12.13;18.29
35435;BME280;21556;55.782;37.528;2023-03-18T10:04:25;101451.75;;;12.66;19.29
35435;BME280;21556;55.782;37.528;2023-03-18T10:07:06;101427.63;;;13.29;17.91
35435;BME280;21556;55.782;37.528;2023-03-18T10:09:42;101427.56;;;13.83;18.88
35435;BME280;21556;55.782;37.528;2023-03-18T10:25:58;101420.50;;;13.82;18.70
35435;BME280;21556;55.782;37.528;2023-03-18T10:28:47;101429.41;;;14.16;19.15
35435;BME280;21556;55.782;37.528;2023-03-18T10:34:10;101418.06;;;13.33;19.55
35435;BME280;21556;55.782;37.528;2023-03-18T10:39:38;101415.22;;;13.54;18.81
35435;BME280;21556;55.782;37.528;2023-03-18T10:42:28;101421.94;;;12.42;19.78
35435;BME280;21556;55.782;37.528;2023-03-18T10:47:45;101402.50;;;13.40;18.04
35435;BME280;21556;55.782;37.528;2023-03-18T10:50:45;101398.38;;;13.23;17.81
35435;BME280;21556;55.782;37.528;2023-03-18T10:53:19;101396.69;;;13.23;18.58
35435;BME280;21556;55.782;37.528;2023-03-18T10:56:07;101401.41;;;13.34;18.86
35435;BME280;21556;55.782;37.528;2023-03-18T10:58:34;101402.06;;;13.27;18.83
35435;BME280;21556;55.782;37.528;2023-03-18T11:01:01;101403.53;;;14.03;18.44
35435;BME280;21556;55.782;37.528;2023-03-18T11:04:00;101396.78;;;13.01;18.13
35435;BME280;21556;55.782;37.528;2023-03-18T11:09:37;101395.66;;;11.95;19.47
35435;BME280;21556;55.782;37.528;2023-03-18T11:12:18;101399.56;;;11.18;19.93
35435;BME280;21556;55.782;37.528;2023-03-18T11:14:49;101405.59;;;10.95;20.15
35435;BME280;21556;55.782;37.528;2023-03-18T11:17:26;101402.44;;;11.24;20.73
35435;BME280;21556;55.782;37.528;2023-03-18T11:22:47;101401.63;;;11.04;20.07
35435;BME280;21556;55.782;37.528;2023-03-18T11:25:21;101393.63;;;11.22;19.40
35435;BME280;21556;55.782;37.528;2023-03-18T11:28:36;101408.66;;;10.25;20.47
35435;BME280;21556;55.782;37.528;2023-03-18T11:31:00;101402.63;;;10.66;20.64
35435;BME280;21556;55.782;37.528;2023-03-18T11:33:31;101399.91;;;11.05;19.21
35435;BME280;21556;55.782;37.528;2023-03-18T11:36:12;101389.22;;;10.60;19.62
35435;BME280;21556;55.782;37.528;2023-03-18T11:38:42;101387.34;;;10.98;19.35
35435;BME280;21556;55.782;37.528;2023-03-18T11:41:22;101389.81;;;10.74;19.40
35435;BME280;21556;55.782;37.528;2023-03-18T11:44:18;101409.03;;;10.32;20.46
35435;BME280;21556;55.782;37.528;2023-03-18T11:47:21;101404.97;;;10.02;21.19
35435;BME280;21556;55.782;37.528;2023-03-18T11:49:49;101392.91;;;10.25;20.91
35435;BME280;21556;55.782;37.528;2023-03-18T11:52:55;101393.59;;;10.80;20.11
35435;BME280;21556;55.782;37.528;2023-03-18T12:04:19;101401.09;;;9.74;21.29
35435;BME280;21556;55.782;37.528;2023-03-18T12:12:31;101394.16;;;9.57;21.34
35435;BME280;21556;55.782;37.528;2023-03-18T12:18:15;101390.34;;;9.32;21.64
35435;BME280;21556;55.782;37.528;2023-03-18T12:31:54;101371.03;;;10.24;21.43
35435;BME280;21556;55.782;37.528;2023-03-18T12:34:46;101373.88;;;10.29;21.17
35435;BME280;21556;55.782;37.528;2023-03-18T12:37:28;101367.78;;;9.54;21.97
35435;BME280;21556;55.782;37.528;2023-03-18T12:40:27;101366.13;;;9.74;21.78
35435;BME280;21556;55.782;37.528;2023-03-18T12:45:49;101369.13;;;9.63;22.26
35435;BME280;21556;55.782;37.528;2023-03-18T12:48:21;101364.31;;;9.18;21.37
35435;BME280;21556;55.782;37.528;2023-03-18T12:51:06;101362.06;;;9.80;22.23
35435;BME280;21556;55.782;37.528;2023-03-18T12:53:39;101358.69;;;8.92;21.55
35435;BME280;21556;55.782;37.528;2023-03-18T12:56:26;101348.41;;;9.50;21.12
35435;BME280;21556;55.782;37.528;2023-03-18T12:59:07;101345.41;;;9.60;21.30
35435;BME280;21556;55.782;37.528;2023-03-18T13:01:45;101348.59;;;9.18;21.88
35435;BME280;21556;55.782;37.528;2023-03-18T13:04:18;101346.06;;;9.19;21.99
35435;BME280;21556;55.782;37.528;2023-03-18T13:09:26;101339.69;;;9.32;20.25
35435;BME280;21556;55.782;37.528;2023-03-18T13:17:19;101335.44;;;8.80;21.81
35435;BME280;21556;55.782;37.528;2023-03-18T13:19:48;101337.88;;;8.59;22.03
35435;BME280;21556;55.782;37.528;2023-03-18T13:22:58;101327.59;;;9.73;21.83
35435;BME280;21556;55.782;37.528;2023-03-18T13:37:08;101316.56;;;9.60;21.27
35435;BME280;21556;55.782;37.528;2023-03-18T13:42:32;101324.75;;;8.94;21.66
35435;BME280;21556;55.782;37.528;2023-03-18T13:45:39;101318.13;;;9.37;21.83
35435;BME280;21556;55.782;37.528;2023-03-18T13:48:13;101315.59;;;9.21;21.95
35435;BME280;21556;55.782;37.528;2023-03-18T13:50:43;101311.00;;;8.98;21.64
35435;BME280;21556;55.782;37.528;2023-03-18T13:53:29;101311.28;;;8.68;22.10
35435;BME280;21556;55.782;37.528;2023-03-18T13:58:34;101303.94;;;8.97;22.25
35435;BME280;21556;55.782;37.528;2023-03-18T14:01:34;101303.19;;;8.81;22.48
35435;BME280;21556;55.782;37.528;2023-03-18T14:04:32;101302.25;;;8.79;22.68
35435;BME280;21556;55.782;37.528;2023-03-18T14:07:20;101303.66;;;8.90;22.43
35435;BME280;21556;55.782;37.528;2023-03-18T14:09:54;101306.59;;;8.79;22.28
35435;BME280;21556;55.782;37.528;2023-03-18T14:15:01;101302.19;;;8.43;22.81
35435;BME280;21556;55.782;37.528;2023-03-18T14:22:48;101293.63;;;8.30;23.59
35435;BME280;21556;55.782;37.528;2023-03-18T14:25:18;101305.88;;;8.47;23.99
35435;BME280;21556;55.782;37.528;2023-03-18T14:28:00;101300.69;;;8.49;23.55
35435;BME280;21556;55.782;37.528;2023-03-18T14:30:46;101295.19;;;8.60;23.65
35435;BME280;21556;55.782;37.528;2023-03-18T14:36:07;101294.97;;;8.56;23.05
35435;BME280;21556;55.782;37.528;2023-03-18T14:39:04;101291.84;;;8.29;24.08
35435;BME280;21556;55.782;37.528;2023-03-18T14:41:43;101297.44;;;8.36;24.15
35435;BME280;21556;55.782;37.528;2023-03-18T14:46:48;101298.03;;;8.31;23.46
35435;BME280;21556;55.782;37.528;2023-03-18T14:49:29;101294.31;;;8.96;23.40
35435;BME280;21556;55.782;37.528;2023-03-18T14:51:59;101286.53;;;8.79;22.93
35435;BME280;21556;55.782;37.528;2023-03-18T14:54:30;101292.56;;;8.42;23.90
35435;BME280;21556;55.782;37.528;2023-03-18T14:57:02;101290.78;;;8.77;24.27
35435;BME280;21556;55.782;37.528;2023-03-18T14:59:31;101292.81;;;8.65;23.65
35435;BME280;21556;55.782;37.528;2023-03-18T15:01:57;101288.22;;;8.27;24.45
35435;BME280;21556;55.782;37.528;2023-03-18T15:04:26;101293.50;;;8.10;25.35
35435;BME280;21556;55.782;37.528;2023-03-18T15:06:54;101303.81;;;7.75;26.07